Aeroporto :
LOGIN :

Iscrizione | Disclaimer

   EN    FR    IT 

 










Sommario :    VFR   VFR Marginale   IFR   IFR Intensivo   IFR Molto Intensivo
Visibilità : 
Base nubi : 
>= 8 km
>= 3000ft
5 / 8 km
1000 / 3000 ft
1500m / 5 km
500 / 1000 ft
800 / 1500m
200 / 500 ft
< 800m
< 200 ft
Simboli :   Temporali  Nebbia  Neve Forte  Precipitazioni Forti  Vento > 20 kt
SIGMETs :   Varie  Temporali  Ghiacco  Turbolenza  Onda orograficha  Ceneri Vulcaniche







- Altitudine del aeroporto : 82 ft
- Codice IATA : AAR


EKAH - Aarhus Tirstrup

ULTIMO METAR :
  • 181220Z AUTO 17009KT 130V210 9999NDV NCD 24/17 Q1015

METARs OBSOLETI :
  • 181150Z AUTO 17007KT 120V210 9999NDV NCD 23/17 Q1015
  • 181120Z AUTO 19006KT 100V260 9999NDV NCD 23/16 Q1016
  • 181050Z AUTO 17006KT 110V260 9999NDV NCD 22/16 Q1016
  • 181020Z AUTO 16009KT 110V210 9999NDV NCD 22/16 Q1016
  • 180950Z AUTO 18007KT 120V230 9999NDV NCD 22/15 Q1016

TAF TAF EKAH
Valido dal 18 a 12 ore il 19 a 12 ore UTC


181106Z 1812/1912 17012KT 9999 FEW040
TEMPO 1812/1820 4000 SHRA SCT040CB
PROB40
TEMPO 1812/1819 VRB15G30KT +TSRA
BECMG 1819/1821 28006KT
Nessun NOTAM noto per questo aeroporto.



MetMap, La meteo Aeronautica in un colpo d'occhio ! - Copyright ORBIFLY Dicembre 2007 - Disclaimer

ORBIFLY MET'MAP TEAM :

Programmazione e sviluppo : Alexandra Zaïnal
Concezione e sviluppo : Baudouin d'Aumeries
Co-Programmazione e sviluppo : Marc-Olivier Méhu
Supporto tecnico e logistico : Manuel Goepfert
Aiuto per la traduzione : Arnaldo La Scala

Contatto : metmap@orbifly.com




FONTI E CREDITI :

   NOAA